My Meet Scores
Abrianna Costa, Gymnastics X-Calibur - MyMeetScores.com
Top100 | Top Teams | Upcoming Meets | Completed Meets | Latest | Add Scores | Help| Support | Bookmark and Share

Abrianna Costa, Gymnastics X-Calibur
Personal Bests
LevelVault BarsBeamFloorAA
39.0009.050 8.8509.15035.950
XG9.0759.550 9.7009.62537.675
XS9.5509.575 9.7259.57538.150
XS:B9.1259.200 9.1258.92536.375
Meet Scores
Date Meet Team Session Level Division Vault Bars Beam Floor AA
2019-05-03 2019 Region 5 Xcel Championships Gymnastics X-Calibur 09O XG CH A 9.075 11T 9.400 8T 9.525 5 9.475 7T 37.475 5
2019-04-05 2019 Illinois XG, XP, XD State Championships Gymnastics X-Calibur 7 XG Ch A 9.050 6T 9.550 4 9.700 1 9.375 6 37.675 3
2019-02-22 Gasparilla Classic Gymnastics X-Calibur A6 XG XG a6 grp1 8.300 7 9.350 5 8.650 7 9.400 3T 35.700 6
2019-02-15 Women's Midwest Open Gymnastics X-Calibur 10 XG Junior A 8.700 11T 9.075 6 9.125 6 9.450 5 36.350 6
2019-02-08 Midwest Twisters Harley Meet Womens Gymnastics X-Calibur S05 XG 9 & under 8.400 7 9.350 2 9.025 2 9.200 4 35.975 2
2019-01-25 King Arthur Invitational Gymnastics X-Calibur 19 XG CH 8.825 8 9.075 8T 9.125 5 9.625 1 36.650 3
2019-01-04 Leenda's Island Adventure Gymnastics X-Calibur P07 XG 10 and Und 8.525 10T 9.525 4T 7.350 18 8.925 6 34.325 13
2018-11-30 Ultimate Wish Classic Gymnastics X-Calibur 9 XG JR 9.000 6T 9.500 1 7.525 18 9.250 10T 35.275 14
2018-04-26 Xcel Region 5 Championships Gymnastics X-Calibur 1A XS:B All 9.125 30 9.200 37 9.125 28 8.925 37 36.375 36
2018-04-06 XCEL State Championships Gymnastics X-Calibur 2A XS Ch A 9.550 3 9.575 2 9.450 8T 9.575 2 38.150 1
2018-03-01 Derby Classic 2018 Gymnastics X-Calibur 8A XS Jr A 8.300 8 9.500 5 9.150 4 9.325 4 36.275 6
2018-02-23 Kinetic Classic Gymnastics X-Calibur 5 XS Younger 9.050 28T 9.450 18T 9.600 8T 9.450 15T 37.550 11
2018-02-03 Midwest Games Gymnastics X-Calibur 2 XS JRA 8.950 8 9.250 9T 9.450 1T 9.250 3T 36.900 4T
2018-01-26 King Arthur Invitational Gymnastics X-Calibur 10 XS JRA 9.250 1 9.525 12 9.325 5T 9.350 4T 37.450 4
2018-01-04 Leenda's Island Adventure Gymnastics X-Calibur G07 XS 9 & Under 9.350 6 9.550 7T 9.725 1 8.700 15T 37.325 5
2017-12-01 Ultimate Wish Classic Gymnastics X-Calibur 14 XS JR1 8.850 7 9.475 8 9.350 5T 9.550 3T 37.225 4T
2017-03-30 2017 Illinois Level 3 & 5 State Gymnastics X-Calibur All 3 Ch A 9.000 22 9.050 19 8.775 15T 9.125 11 35.950 17
2017-02-24 St. Louis Classic Gymnastics X-Calibur B-8 3 Jr A 8.950 8 8.675 9 8.550 4 9.000 7 35.175 7
2017-02-03 St. Valentines Classic Womens Gymnastics X-Calibur 3A 3 6-8 yrs. 9.000 8 8.650 8 8.850 4 9.150 4T 35.650 7
2017-01-13 St Jude Benefit Meet Gymnastics X-Calibur 8A 3 Jr A 8.950 9 8.700 10T 8.325 7 8.450 13 34.425 11
Get your scores on
a t-shirt, pin, or hoodie

Order by December 13

www.lazysuits.com